sensor_id;sensor_type;location;lat;lon;timestamp;temperature;humidity
490;DHT22;231;48.120;11.576;2024-02-26T00:00:14;3.60;70.60
490;DHT22;231;48.120;11.576;2024-02-26T00:02:51;2.70;65.00
490;DHT22;231;48.120;11.576;2024-02-26T00:05:19;2.70;63.40
490;DHT22;231;48.120;11.576;2024-02-26T00:08:08;2.50;60.30
490;DHT22;231;48.120;11.576;2024-02-26T00:10:37;2.80;57.90
490;DHT22;231;48.120;11.576;2024-02-26T00:13:18;2.80;56.20
490;DHT22;231;48.120;11.576;2024-02-26T00:16:04;2.80;54.70
490;DHT22;231;48.120;11.576;2024-02-26T00:22:25;2.70;52.40
490;DHT22;231;48.120;11.576;2024-02-26T00:25:25;2.70;52.20
490;DHT22;231;48.120;11.576;2024-02-26T00:28:28;2.60;52.40
490;DHT22;231;48.120;11.576;2024-02-26T00:31:35;2.60;52.40
490;DHT22;231;48.120;11.576;2024-02-26T00:34:25;2.60;51.90
490;DHT22;231;48.120;11.576;2024-02-26T00:37:00;2.50;51.50
490;DHT22;231;48.120;11.576;2024-02-26T00:42:49;2.40;51.80
490;DHT22;231;48.120;11.576;2024-02-26T00:45:46;2.30;52.80
490;DHT22;231;48.120;11.576;2024-02-26T00:48:21;2.30;56.20
490;DHT22;231;48.120;11.576;2024-02-26T00:51:12;2.20;55.30
490;DHT22;231;48.120;11.576;2024-02-26T00:54:09;2.20;56.20
490;DHT22;231;48.120;11.576;2024-02-26T00:56:39;2.10;56.20
490;DHT22;231;48.120;11.576;2024-02-26T00:59:08;2.20;57.60
490;DHT22;231;48.120;11.576;2024-02-26T01:01:36;2.20;58.00
490;DHT22;231;48.120;11.576;2024-02-26T01:04:03;2.10;57.90
490;DHT22;231;48.120;11.576;2024-02-26T01:06:32;2.20;57.90
490;DHT22;231;48.120;11.576;2024-02-26T01:09:09;2.00;58.50
490;DHT22;231;48.120;11.576;2024-02-26T01:11:55;1.90;58.10
490;DHT22;231;48.120;11.576;2024-02-26T01:14:50;1.80;60.00
490;DHT22;231;48.120;11.576;2024-02-26T01:17:39;1.90;62.60
490;DHT22;231;48.120;11.576;2024-02-26T01:23:49;1.70;62.60
490;DHT22;231;48.120;11.576;2024-02-26T01:26:34;1.70;63.60
490;DHT22;231;48.120;11.576;2024-02-26T01:29:15;1.60;64.80
490;DHT22;231;48.120;11.576;2024-02-26T01:32:05;1.60;66.60
490;DHT22;231;48.120;11.576;2024-02-26T01:35:00;1.70;68.80
490;DHT22;231;48.120;11.576;2024-02-26T01:38:03;1.70;66.80
490;DHT22;231;48.120;11.576;2024-02-26T01:40:45;1.70;64.00
490;DHT22;231;48.120;11.576;2024-02-26T01:43:27;1.70;63.20
490;DHT22;231;48.120;11.576;2024-02-26T01:46:00;1.70;63.30
490;DHT22;231;48.120;11.576;2024-02-26T01:48:43;1.70;62.40
490;DHT22;231;48.120;11.576;2024-02-26T01:51:45;1.60;61.70
490;DHT22;231;48.120;11.576;2024-02-26T01:54:16;1.70;64.60
490;DHT22;231;48.120;11.576;2024-02-26T01:56:45;1.80;63.70
490;DHT22;231;48.120;11.576;2024-02-26T01:59:18;2.40;62.70
490;DHT22;231;48.120;11.576;2024-02-26T02:01:57;2.30;62.50
490;DHT22;231;48.120;11.576;2024-02-26T02:04:28;1.80;61.80
490;DHT22;231;48.120;11.576;2024-02-26T02:06:58;2.80;61.10
490;DHT22;231;48.120;11.576;2024-02-26T02:09:31;2.30;59.00
490;DHT22;231;48.120;11.576;2024-02-26T02:12:03;1.80;58.40
490;DHT22;231;48.120;11.576;2024-02-26T02:14:42;1.70;57.60
490;DHT22;231;48.120;11.576;2024-02-26T02:20:42;1.70;59.70
490;DHT22;231;48.120;11.576;2024-02-26T02:23:19;1.60;59.80
490;DHT22;231;48.120;11.576;2024-02-26T02:25:58;2.30;61.90
490;DHT22;231;48.120;11.576;2024-02-26T02:28:42;1.60;61.20
490;DHT22;231;48.120;11.576;2024-02-26T02:31:32;1.60;60.90
490;DHT22;231;48.120;11.576;2024-02-26T02:34:10;1.60;61.40
490;DHT22;231;48.120;11.576;2024-02-26T02:36:57;1.60;59.80
490;DHT22;231;48.120;11.576;2024-02-26T02:39:30;1.60;58.90
490;DHT22;231;48.120;11.576;2024-02-26T02:42:14;1.50;59.20
490;DHT22;231;48.120;11.576;2024-02-26T02:44:47;1.60;59.80
490;DHT22;231;48.120;11.576;2024-02-26T02:47:19;1.60;59.70
490;DHT22;231;48.120;11.576;2024-02-26T02:49:48;1.60;58.90
490;DHT22;231;48.120;11.576;2024-02-26T02:52:28;1.60;57.90
490;DHT22;231;48.120;11.576;2024-02-26T02:55:01;1.60;57.20
490;DHT22;231;48.120;11.576;2024-02-26T02:57:33;1.50;57.90
490;DHT22;231;48.120;11.576;2024-02-26T03:00:29;1.40;58.50
490;DHT22;231;48.120;11.576;2024-02-26T03:03:05;1.40;58.70
490;DHT22;231;48.120;11.576;2024-02-26T03:05:39;1.40;60.20
490;DHT22;231;48.120;11.576;2024-02-26T03:08:18;1.40;59.90
490;DHT22;231;48.120;11.576;2024-02-26T03:10:48;1.50;60.00
490;DHT22;231;48.120;11.576;2024-02-26T03:13:19;1.50;58.90
490;DHT22;231;48.120;11.576;2024-02-26T03:15:47;1.50;58.30
490;DHT22;231;48.120;11.576;2024-02-26T03:18:14;1.50;58.30
490;DHT22;231;48.120;11.576;2024-02-26T03:20:45;1.70;56.70
490;DHT22;231;48.120;11.576;2024-02-26T03:23:16;1.60;54.60
490;DHT22;231;48.120;11.576;2024-02-26T03:25:44;1.70;53.50
490;DHT22;231;48.120;11.576;2024-02-26T03:28:13;1.70;51.90
490;DHT22;231;48.120;11.576;2024-02-26T03:30:43;1.80;52.10
490;DHT22;231;48.120;11.576;2024-02-26T03:33:10;2.70;50.60
490;DHT22;231;48.120;11.576;2024-02-26T03:35:42;2.70;49.50
490;DHT22;231;48.120;11.576;2024-02-26T03:38:09;2.00;46.90
490;DHT22;231;48.120;11.576;2024-02-26T03:40:38;2.70;47.10
490;DHT22;231;48.120;11.576;2024-02-26T03:43:05;2.20;45.90
490;DHT22;231;48.120;11.576;2024-02-26T03:45:34;1.90;45.20
490;DHT22;231;48.120;11.576;2024-02-26T03:48:03;1.80;45.20
490;DHT22;231;48.120;11.576;2024-02-26T03:50:30;1.90;45.30
490;DHT22;231;48.120;11.576;2024-02-26T03:53:07;2.80;45.70
490;DHT22;231;48.120;11.576;2024-02-26T03:55:42;1.90;44.60
490;DHT22;231;48.120;11.576;2024-02-26T03:58:12;2.00;43.50
490;DHT22;231;48.120;11.576;2024-02-26T04:00:44;2.30;43.50
490;DHT22;231;48.120;11.576;2024-02-26T04:03:17;1.80;43.60
490;DHT22;231;48.120;11.576;2024-02-26T04:05:44;1.80;43.70
490;DHT22;231;48.120;11.576;2024-02-26T04:08:17;1.80;43.40
490;DHT22;231;48.120;11.576;2024-02-26T04:10:46;1.80;42.30
490;DHT22;231;48.120;11.576;2024-02-26T04:13:17;2.10;43.70
490;DHT22;231;48.120;11.576;2024-02-26T04:15:52;1.90;41.90
490;DHT22;231;48.120;11.576;2024-02-26T04:18:19;2.00;41.50
490;DHT22;231;48.120;11.576;2024-02-26T04:20:52;2.00;39.90
490;DHT22;231;48.120;11.576;2024-02-26T04:23:19;2.00;38.60
490;DHT22;231;48.120;11.576;2024-02-26T04:25:48;2.00;38.50
490;DHT22;231;48.120;11.576;2024-02-26T04:28:18;1.90;39.00
490;DHT22;231;48.120;11.576;2024-02-26T04:31:02;1.90;38.30
490;DHT22;231;48.120;11.576;2024-02-26T04:33:35;1.90;38.20
490;DHT22;231;48.120;11.576;2024-02-26T04:36:05;1.90;38.70
490;DHT22;231;48.120;11.576;2024-02-26T04:38:37;1.90;39.30
490;DHT22;231;48.120;11.576;2024-02-26T04:41:11;1.90;38.90
490;DHT22;231;48.120;11.576;2024-02-26T04:43:38;1.90;37.90
490;DHT22;231;48.120;11.576;2024-02-26T04:46:12;1.80;38.90
490;DHT22;231;48.120;11.576;2024-02-26T04:48:45;1.90;38.30
490;DHT22;231;48.120;11.576;2024-02-26T04:51:20;1.80;38.40
490;DHT22;231;48.120;11.576;2024-02-26T04:53:55;1.80;38.50
490;DHT22;231;48.120;11.576;2024-02-26T04:56:26;1.80;38.10
490;DHT22;231;48.120;11.576;2024-02-26T04:58:55;1.70;38.20
490;DHT22;231;48.120;11.576;2024-02-26T05:01:42;1.70;39.50
490;DHT22;231;48.120;11.576;2024-02-26T05:04:20;2.20;40.30
490;DHT22;231;48.120;11.576;2024-02-26T05:07:03;1.70;39.30
490;DHT22;231;48.120;11.576;2024-02-26T05:09:39;1.70;39.10
490;DHT22;231;48.120;11.576;2024-02-26T05:12:10;1.80;38.10
490;DHT22;231;48.120;11.576;2024-02-26T05:14:46;1.80;37.80
490;DHT22;231;48.120;11.576;2024-02-26T05:17:16;1.80;36.80
490;DHT22;231;48.120;11.576;2024-02-26T05:19:43;1.80;37.40
490;DHT22;231;48.120;11.576;2024-02-26T05:22:10;1.70;36.70
490;DHT22;231;48.120;11.576;2024-02-26T05:24:38;1.80;37.10
490;DHT22;231;48.120;11.576;2024-02-26T05:27:05;1.80;36.90
490;DHT22;231;48.120;11.576;2024-02-26T05:29:33;1.80;36.90
490;DHT22;231;48.120;11.576;2024-02-26T05:32:00;2.60;36.60
490;DHT22;231;48.120;11.576;2024-02-26T05:34:30;1.70;35.50
490;DHT22;231;48.120;11.576;2024-02-26T05:37:00;1.80;36.40
490;DHT22;231;48.120;11.576;2024-02-26T05:39:27;1.80;35.90
490;DHT22;231;48.120;11.576;2024-02-26T05:41:54;2.50;36.70
490;DHT22;231;48.120;11.576;2024-02-26T05:44:23;1.80;36.50
490;DHT22;231;48.120;11.576;2024-02-26T05:46:54;1.90;36.60
490;DHT22;231;48.120;11.576;2024-02-26T05:49:22;1.90;35.80
490;DHT22;231;48.120;11.576;2024-02-26T05:51:49;1.80;35.70
490;DHT22;231;48.120;11.576;2024-02-26T05:54:16;2.00;36.00
490;DHT22;231;48.120;11.576;2024-02-26T05:56:43;1.90;36.80
490;DHT22;231;48.120;11.576;2024-02-26T05:59:10;2.00;38.60
490;DHT22;231;48.120;11.576;2024-02-26T06:01:37;2.60;40.10
490;DHT22;231;48.120;11.576;2024-02-26T06:04:05;2.20;40.10
490;DHT22;231;48.120;11.576;2024-02-26T06:06:35;2.20;38.90
490;DHT22;231;48.120;11.576;2024-02-26T06:09:03;2.30;36.50
490;DHT22;231;48.120;11.576;2024-02-26T06:11:31;2.40;33.50
490;DHT22;231;48.120;11.576;2024-02-26T06:13:57;2.50;32.10
490;DHT22;231;48.120;11.576;2024-02-26T06:16:25;3.10;31.10
490;DHT22;231;48.120;11.576;2024-02-26T06:18:52;3.40;30.50
490;DHT22;231;48.120;11.576;2024-02-26T06:21:20;3.00;29.80
490;DHT22;231;48.120;11.576;2024-02-26T06:23:47;2.90;29.30
490;DHT22;231;48.120;11.576;2024-02-26T06:26:15;3.00;27.70
490;DHT22;231;48.120;11.576;2024-02-26T06:28:44;3.20;27.00
490;DHT22;231;48.120;11.576;2024-02-26T06:31:11;3.30;26.10
490;DHT22;231;48.120;11.576;2024-02-26T06:33:38;3.40;25.80
490;DHT22;231;48.120;11.576;2024-02-26T06:36:05;3.50;24.10
490;DHT22;231;48.120;11.576;2024-02-26T06:38:34;3.60;23.70
490;DHT22;231;48.120;11.576;2024-02-26T06:41:01;3.80;22.60
490;DHT22;231;48.120;11.576;2024-02-26T06:43:29;3.90;21.70
490;DHT22;231;48.120;11.576;2024-02-26T06:46:04;4.00;20.60
490;DHT22;231;48.120;11.576;2024-02-26T06:48:40;4.10;19.90
490;DHT22;231;48.120;11.576;2024-02-26T06:51:08;4.20;19.20
490;DHT22;231;48.120;11.576;2024-02-26T06:53:39;4.30;18.40
490;DHT22;231;48.120;11.576;2024-02-26T06:56:09;4.50;18.00
490;DHT22;231;48.120;11.576;2024-02-26T06:58:44;4.60;18.20
490;DHT22;231;48.120;11.576;2024-02-26T07:01:12;4.90;17.00
490;DHT22;231;48.120;11.576;2024-02-26T07:03:42;4.90;16.60
490;DHT22;231;48.120;11.576;2024-02-26T07:06:12;5.10;16.60
490;DHT22;231;48.120;11.576;2024-02-26T07:08:42;5.30;16.10
490;DHT22;231;48.120;11.576;2024-02-26T07:11:13;5.50;15.90
490;DHT22;231;48.120;11.576;2024-02-26T07:13:40;5.60;14.70
490;DHT22;231;48.120;11.576;2024-02-26T07:16:09;5.70;13.90
490;DHT22;231;48.120;11.576;2024-02-26T07:18:36;5.80;13.50
490;DHT22;231;48.120;11.576;2024-02-26T07:21:03;6.00;13.30
490;DHT22;231;48.120;11.576;2024-02-26T07:23:34;6.10;11.80
490;DHT22;231;48.120;11.576;2024-02-26T07:26:04;6.30;11.60
490;DHT22;231;48.120;11.576;2024-02-26T07:28:34;6.40;11.30
490;DHT22;231;48.120;11.576;2024-02-26T07:31:01;6.50;10.40
490;DHT22;231;48.120;11.576;2024-02-26T07:33:31;6.50;9.80
490;DHT22;231;48.120;11.576;2024-02-26T07:35:58;6.50;9.60
490;DHT22;231;48.120;11.576;2024-02-26T07:41:34;6.80;9.70
490;DHT22;231;48.120;11.576;2024-02-26T07:45:05;6.90;8.50
490;DHT22;231;48.120;11.576;2024-02-26T07:48:54;7.40;8.40
490;DHT22;231;48.120;11.576;2024-02-26T07:55:17;8.50;4.80
490;DHT22;231;48.120;11.576;2024-02-26T10:11:30;20.00;1.00
490;DHT22;231;48.120;11.576;2024-02-26T10:14:35;20.10;1.00
490;DHT22;231;48.120;11.576;2024-02-26T11:25:23;22.70;1.00
490;DHT22;231;48.120;11.576;2024-02-26T11:29:18;21.90;1.00
490;DHT22;231;48.120;11.576;2024-02-26T11:35:35;21.30;1.00
490;DHT22;231;48.120;11.576;2024-02-26T11:38:28;21.00;1.00
490;DHT22;231;48.120;11.576;2024-02-26T11:45:02;21.50;1.00
490;DHT22;231;48.120;11.576;2024-02-26T11:51:38;21.00;1.00
490;DHT22;231;48.120;11.576;2024-02-26T13:14:22;18.60;1.00
490;DHT22;231;48.120;11.576;2024-02-26T17:08:32;9.80;2.10
490;DHT22;231;48.120;11.576;2024-02-26T17:11:01;9.70;2.50
490;DHT22;231;48.120;11.576;2024-02-26T17:13:30;9.70;3.00
490;DHT22;231;48.120;11.576;2024-02-26T17:15:56;9.70;3.40
490;DHT22;231;48.120;11.576;2024-02-26T17:18:24;9.70;3.70
490;DHT22;231;48.120;11.576;2024-02-26T17:20:52;9.60;4.00
490;DHT22;231;48.120;11.576;2024-02-26T17:23:23;9.60;4.60
490;DHT22;231;48.120;11.576;2024-02-26T17:25:53;9.60;4.90
490;DHT22;231;48.120;11.576;2024-02-26T17:28:22;9.60;5.40
490;DHT22;231;48.120;11.576;2024-02-26T17:30:49;9.60;6.30
490;DHT22;231;48.120;11.576;2024-02-26T17:33:17;9.50;6.50
490;DHT22;231;48.120;11.576;2024-02-26T17:35:44;9.60;6.90
490;DHT22;231;48.120;11.576;2024-02-26T17:38:11;9.50;6.90
490;DHT22;231;48.120;11.576;2024-02-26T17:40:38;9.60;6.90
490;DHT22;231;48.120;11.576;2024-02-26T17:43:07;9.50;6.80
490;DHT22;231;48.120;11.576;2024-02-26T17:45:33;9.50;7.50
490;DHT22;231;48.120;11.576;2024-02-26T17:48:01;9.50;7.50
490;DHT22;231;48.120;11.576;2024-02-26T17:50:28;9.50;7.30
490;DHT22;231;48.120;11.576;2024-02-26T17:52:55;9.50;7.40
490;DHT22;231;48.120;11.576;2024-02-26T17:55:22;9.40;7.60
490;DHT22;231;48.120;11.576;2024-02-26T17:57:49;9.40;7.90
490;DHT22;231;48.120;11.576;2024-02-26T18:00:18;9.40;8.10
490;DHT22;231;48.120;11.576;2024-02-26T18:02:45;9.40;8.40
490;DHT22;231;48.120;11.576;2024-02-26T18:05:12;9.30;8.90
490;DHT22;231;48.120;11.576;2024-02-26T18:07:40;9.20;9.10
490;DHT22;231;48.120;11.576;2024-02-26T18:10:11;9.20;9.30
490;DHT22;231;48.120;11.576;2024-02-26T18:12:40;9.10;10.00
490;DHT22;231;48.120;11.576;2024-02-26T18:15:07;9.00;10.30
490;DHT22;231;48.120;11.576;2024-02-26T18:17:36;9.00;11.20
490;DHT22;231;48.120;11.576;2024-02-26T18:20:04;8.90;11.50
490;DHT22;231;48.120;11.576;2024-02-26T18:22:33;8.80;12.70
490;DHT22;231;48.120;11.576;2024-02-26T18:25:00;8.70;12.70
490;DHT22;231;48.120;11.576;2024-02-26T18:27:27;8.70;13.20
490;DHT22;231;48.120;11.576;2024-02-26T18:29:55;8.60;13.60
490;DHT22;231;48.120;11.576;2024-02-26T18:32:22;8.60;14.10
490;DHT22;231;48.120;11.576;2024-02-26T18:34:51;8.50;14.50
490;DHT22;231;48.120;11.576;2024-02-26T18:37:20;8.50;15.50
490;DHT22;231;48.120;11.576;2024-02-26T18:39:48;8.50;15.50
490;DHT22;231;48.120;11.576;2024-02-26T18:42:16;8.50;15.70
490;DHT22;231;48.120;11.576;2024-02-26T18:44:44;8.40;16.30
490;DHT22;231;48.120;11.576;2024-02-26T18:47:11;8.50;16.50
490;DHT22;231;48.120;11.576;2024-02-26T18:49:39;8.40;16.60
490;DHT22;231;48.120;11.576;2024-02-26T18:52:07;8.40;17.00
490;DHT22;231;48.120;11.576;2024-02-26T18:54:34;8.40;17.50
490;DHT22;231;48.120;11.576;2024-02-26T18:57:05;8.30;17.50
490;DHT22;231;48.120;11.576;2024-02-26T18:59:32;8.30;17.80
490;DHT22;231;48.120;11.576;2024-02-26T19:02:00;8.30;18.10
490;DHT22;231;48.120;11.576;2024-02-26T19:04:27;8.30;18.20
490;DHT22;231;48.120;11.576;2024-02-26T19:06:55;8.30;18.30
490;DHT22;231;48.120;11.576;2024-02-26T19:09:25;8.30;18.60
490;DHT22;231;48.120;11.576;2024-02-26T19:11:53;8.20;18.50
490;DHT22;231;48.120;11.576;2024-02-26T19:14:21;8.20;18.80
490;DHT22;231;48.120;11.576;2024-02-26T19:16:48;8.10;19.00
490;DHT22;231;48.120;11.576;2024-02-26T19:19:15;8.10;19.50
490;DHT22;231;48.120;11.576;2024-02-26T19:21:43;8.00;19.50
490;DHT22;231;48.120;11.576;2024-02-26T19:24:10;8.00;20.00
490;DHT22;231;48.120;11.576;2024-02-26T19:26:40;7.90;20.50
490;DHT22;231;48.120;11.576;2024-02-26T19:29:07;7.90;20.70
490;DHT22;231;48.120;11.576;2024-02-26T19:31:39;7.80;21.10
490;DHT22;231;48.120;11.576;2024-02-26T19:34:09;7.70;21.50
490;DHT22;231;48.120;11.576;2024-02-26T19:36:40;7.60;21.60
490;DHT22;231;48.120;11.576;2024-02-26T19:39:10;7.60;22.70
490;DHT22;231;48.120;11.576;2024-02-26T19:41:51;7.50;23.20
490;DHT22;231;48.120;11.576;2024-02-26T19:47:51;7.40;23.80
490;DHT22;231;48.120;11.576;2024-02-26T19:50:35;7.30;24.20
490;DHT22;231;48.120;11.576;2024-02-26T19:53:18;7.20;24.60
490;DHT22;231;48.120;11.576;2024-02-26T21:00:58;5.90;34.60
490;DHT22;231;48.120;11.576;2024-02-26T21:03:28;5.80;35.90
490;DHT22;231;48.120;11.576;2024-02-26T21:05:55;5.70;37.30
490;DHT22;231;48.120;11.576;2024-02-26T21:08:22;5.60;39.50
490;DHT22;231;48.120;11.576;2024-02-26T21:10:49;5.60;40.50
490;DHT22;231;48.120;11.576;2024-02-26T21:13:16;5.60;40.70
490;DHT22;231;48.120;11.576;2024-02-26T21:15:44;5.50;41.30
490;DHT22;231;48.120;11.576;2024-02-26T21:18:13;5.50;40.90
490;DHT22;231;48.120;11.576;2024-02-26T21:20:40;5.50;41.10
490;DHT22;231;48.120;11.576;2024-02-26T21:23:09;5.50;41.40
490;DHT22;231;48.120;11.576;2024-02-26T21:26:06;5.50;41.50
490;DHT22;231;48.120;11.576;2024-02-26T21:28:34;5.50;40.20
490;DHT22;231;48.120;11.576;2024-02-26T21:31:02;5.40;40.00
490;DHT22;231;48.120;11.576;2024-02-26T21:33:30;5.40;40.00
490;DHT22;231;48.120;11.576;2024-02-26T21:35:58;5.40;39.40
490;DHT22;231;48.120;11.576;2024-02-26T21:38:26;5.30;39.20
490;DHT22;231;48.120;11.576;2024-02-26T21:40:53;5.40;40.00
490;DHT22;231;48.120;11.576;2024-02-26T21:43:21;5.30;40.50
490;DHT22;231;48.120;11.576;2024-02-26T21:45:48;5.30;40.60
490;DHT22;231;48.120;11.576;2024-02-26T21:48:15;5.30;40.90
490;DHT22;231;48.120;11.576;2024-02-26T21:50:43;5.30;40.20
490;DHT22;231;48.120;11.576;2024-02-26T21:53:11;5.30;40.20
490;DHT22;231;48.120;11.576;2024-02-26T21:55:38;5.30;40.20
490;DHT22;231;48.120;11.576;2024-02-26T21:58:08;5.30;39.90
490;DHT22;231;48.120;11.576;2024-02-26T22:00:35;5.20;40.00
490;DHT22;231;48.120;11.576;2024-02-26T22:03:02;5.20;40.00
490;DHT22;231;48.120;11.576;2024-02-26T22:05:29;5.20;39.40
490;DHT22;231;48.120;11.576;2024-02-26T22:07:56;5.20;40.60
490;DHT22;231;48.120;11.576;2024-02-26T22:10:23;5.10;41.10
490;DHT22;231;48.120;11.576;2024-02-26T22:12:50;5.10;41.40
490;DHT22;231;48.120;11.576;2024-02-26T22:15:17;5.10;40.70
490;DHT22;231;48.120;11.576;2024-02-26T22:17:45;5.00;40.40
490;DHT22;231;48.120;11.576;2024-02-26T22:20:12;5.00;41.20
490;DHT22;231;48.120;11.576;2024-02-26T22:22:39;5.00;42.00
490;DHT22;231;48.120;11.576;2024-02-26T22:25:08;5.00;42.00
490;DHT22;231;48.120;11.576;2024-02-26T22:27:35;5.00;41.70
490;DHT22;231;48.120;11.576;2024-02-26T22:30:03;5.10;41.00
490;DHT22;231;48.120;11.576;2024-02-26T22:32:30;5.10;40.30
490;DHT22;231;48.120;11.576;2024-02-26T22:34:57;5.10;40.60
490;DHT22;231;48.120;11.576;2024-02-26T22:37:24;5.20;40.70
490;DHT22;231;48.120;11.576;2024-02-26T22:39:50;5.20;40.90
490;DHT22;231;48.120;11.576;2024-02-26T22:42:20;5.20;41.50
490;DHT22;231;48.120;11.576;2024-02-26T22:44:47;5.20;41.90
490;DHT22;231;48.120;11.576;2024-02-26T22:47:14;5.20;43.10
490;DHT22;231;48.120;11.576;2024-02-26T22:49:41;5.20;44.40
490;DHT22;231;48.120;11.576;2024-02-26T22:52:08;5.20;45.60
490;DHT22;231;48.120;11.576;2024-02-26T22:54:35;5.20;47.10
490;DHT22;231;48.120;11.576;2024-02-26T22:57:02;5.10;46.80
490;DHT22;231;48.120;11.576;2024-02-26T22:59:30;5.00;47.00
490;DHT22;231;48.120;11.576;2024-02-26T23:01:57;5.00;47.70
490;DHT22;231;48.120;11.576;2024-02-26T23:04:24;4.90;49.50
490;DHT22;231;48.120;11.576;2024-02-26T23:06:53;4.80;50.70
490;DHT22;231;48.120;11.576;2024-02-26T23:09:20;4.80;52.10
490;DHT22;231;48.120;11.576;2024-02-26T23:11:48;4.80;52.60
490;DHT22;231;48.120;11.576;2024-02-26T23:14:15;4.80;53.50
490;DHT22;231;48.120;11.576;2024-02-26T23:16:43;4.80;54.90
490;DHT22;231;48.120;11.576;2024-02-26T23:19:10;4.80;55.80
490;DHT22;231;48.120;11.576;2024-02-26T23:21:37;4.80;56.50
490;DHT22;231;48.120;11.576;2024-02-26T23:24:05;4.80;57.40
490;DHT22;231;48.120;11.576;2024-02-26T23:26:32;4.90;57.50
490;DHT22;231;48.120;11.576;2024-02-26T23:28:59;4.90;57.50
490;DHT22;231;48.120;11.576;2024-02-26T23:31:25;4.90;57.20
490;DHT22;231;48.120;11.576;2024-02-26T23:33:54;4.90;57.50
490;DHT22;231;48.120;11.576;2024-02-26T23:36:23;4.90;57.50
490;DHT22;231;48.120;11.576;2024-02-26T23:38:50;4.90;57.50
490;DHT22;231;48.120;11.576;2024-02-26T23:41:19;4.80;59.00
490;DHT22;231;48.120;11.576;2024-02-26T23:43:47;4.90;58.70
490;DHT22;231;48.120;11.576;2024-02-26T23:46:14;4.90;58.90
490;DHT22;231;48.120;11.576;2024-02-26T23:48:41;4.90;58.80
490;DHT22;231;48.120;11.576;2024-02-26T23:51:11;4.90;58.50
490;DHT22;231;48.120;11.576;2024-02-26T23:53:37;4.80;58.10
490;DHT22;231;48.120;11.576;2024-02-26T23:56:05;4.90;57.80
490;DHT22;231;48.120;11.576;2024-02-26T23:58:32;4.80;57.40
